Time;durP1;ratioP1;P1;durP2;ratioP2;P2;SDS_P1;SDS_P2;PMS_P1;PMS_P2;Temp;Humidity;BMP_temperature;BMP_pressure;BME280_temperature;BME280_humidity;BME280_pressure;Samples;Min_cycle;Max_cycle;Signal;HPM_P1;HPM_P2
2022/05/01 00:01:39;;;;;;;3.87;3.53;;;11.00;99.90;;;;;;5042909;28;20198;-68
2022/05/01 00:04:05;;;;;;;5.63;3.80;;;11.00;99.90;;;;;;5040732;28;20197;-68
2022/05/01 00:06:34;;;;;;;6.50;3.77;;;11.00;99.90;;;;;;5044048;28;20316;-67
2022/05/01 00:09:03;;;;;;;4.50;4.10;;;11.00;99.90;;;;;;5034844;28;20206;-66
2022/05/01 00:11:30;;;;;;;5.07;4.67;;;10.90;99.90;;;;;;5045846;28;20209;-66
2022/05/01 00:13:59;;;;;;;5.23;3.90;;;10.80;99.90;;;;;;5045334;28;20220;-66
2022/05/01 00:16:25;;;;;;;6.33;4.60;;;10.80;99.90;;;;;;5041281;28;20237;-66
2022/05/01 00:18:51;;;;;;;6.10;3.93;;;10.80;99.90;;;;;;5039042;28;20200;-67
2022/05/01 00:21:16;;;;;;;6.87;3.40;;;10.70;99.90;;;;;;5035725;28;20226;-66
2022/05/01 00:23:42;;;;;;;4.47;3.70;;;10.70;99.90;;;;;;5037115;28;20208;-66
2022/05/01 00:26:08;;;;;;;3.60;3.27;;;10.70;99.90;;;;;;5050156;28;20692;-66
2022/05/01 00:28:35;;;;;;;7.80;4.07;;;10.70;99.90;;;;;;5042145;28;20568;-65
2022/05/01 00:31:03;;;;;;;4.50;3.83;;;10.70;99.90;;;;;;5048913;28;20225;-66
2022/05/01 00:36:33;;;;;;;4.10;3.37;;;10.60;99.90;;;;;;5045005;28;20269;-66
2022/05/01 00:39:01;;;;;;;4.10;3.70;;;10.60;99.90;;;;;;5034231;28;21402;-66
2022/05/01 00:41:31;;;;;;;3.47;3.27;;;10.50;99.90;;;;;;5037187;28;20304;-66
2022/05/01 00:44:08;;;;;;;4.00;3.53;;;10.50;99.90;;;;;;5032939;28;20287;-67
2022/05/01 00:46:42;;;;;;;7.57;4.00;;;10.50;99.90;;;;;;5044093;28;20206;-69
2022/05/01 00:49:16;;;;;;;4.43;3.90;;;10.40;99.90;;;;;;5032048;28;20204;-67
2022/05/01 00:51:47;;;;;;;6.77;4.03;;;10.40;99.90;;;;;;5033610;28;20232;-73
2022/05/01 00:54:17;;;;;;;7.83;4.37;;;10.40;99.90;;;;;;5064182;28;20212;-61
2022/05/01 00:56:47;;;;;;;4.93;4.27;;;10.40;99.90;;;;;;5037121;28;20710;-62
2022/05/01 00:59:13;;;;;;;6.57;4.07;;;10.40;99.90;;;;;;5050240;28;20203;-71
2022/05/01 01:01:44;;;;;;;7.23;4.27;;;10.30;99.90;;;;;;5033151;28;20188;-63
2022/05/01 01:04:11;;;;;;;8.00;4.90;;;10.30;99.90;;;;;;5052001;28;20227;-62
2022/05/01 01:06:41;;;;;;;5.47;4.60;;;10.20;99.90;;;;;;5035759;28;20190;-61
2022/05/01 01:09:08;;;;;;;5.30;4.07;;;10.20;99.90;;;;;;5033252;28;20228;-61
2022/05/01 01:11:33;;;;;;;13.33;4.03;;;10.10;99.90;;;;;;5034096;28;20675;-61
2022/05/01 01:13:59;;;;;;;8.30;5.77;;;10.10;99.90;;;;;;5037259;28;20201;-63
2022/05/01 01:16:26;;;;;;;8.57;5.00;;;10.00;99.90;;;;;;5035007;28;20192;-62
2022/05/01 01:18:52;;;;;;;4.57;4.17;;;9.90;99.90;;;;;;5031831;28;20656;-62
2022/05/01 01:21:18;;;;;;;9.57;3.97;;;10.00;99.90;;;;;;5034649;28;20364;-62
2022/05/01 01:23:44;;;;;;;5.53;4.43;;;9.90;99.90;;;;;;5037634;28;20283;-60
2022/05/01 01:26:12;;;;;;;5.50;5.00;;;9.90;99.90;;;;;;5033544;28;20205;-61
2022/05/01 01:28:41;;;;;;;5.63;4.03;;;9.90;99.90;;;;;;5039876;28;20188;-61
2022/05/01 01:34:04;;;;;;;8.50;4.60;;;9.70;99.90;;;;;;5032155;28;20744;-72
2022/05/01 01:36:32;;;;;;;8.53;4.47;;;9.70;99.90;;;;;;5034804;28;20192;-68
2022/05/01 01:38:58;;;;;;;6.83;5.30;;;9.70;99.90;;;;;;5034669;28;20197;-69
2022/05/01 01:41:30;;;;;;;7.00;4.40;;;9.70;99.90;;;;;;5034768;28;20180;-68
2022/05/01 01:43:56;;;;;;;5.63;5.13;;;9.70;99.90;;;;;;5034213;28;20212;-70
2022/05/01 01:46:22;;;;;;;8.17;5.60;;;9.70;99.90;;;;;;5035356;28;20177;-69
2022/05/01 01:48:47;;;;;;;6.47;5.57;;;9.80;99.90;;;;;;5033443;28;20904;-69
2022/05/01 01:51:13;;;;;;;5.93;4.27;;;9.70;99.90;;;;;;5034672;28;21052;-70
2022/05/01 01:53:39;;;;;;;8.07;5.10;;;9.70;99.90;;;;;;5035973;28;20211;-68
2022/05/01 01:56:07;;;;;;;4.67;4.27;;;9.80;99.90;;;;;;5039217;28;20224;-68
2022/05/01 01:58:33;;;;;;;5.00;3.97;;;9.80;99.90;;;;;;5035903;28;20181;-63
2022/05/01 02:01:02;;;;;;;7.78;5.10;;;9.80;99.90;;;;;;5033990;28;20761;-76
2022/05/01 02:03:27;;;;;;;29.33;19.97;;;9.80;99.90;;;;;;5052071;28;20188;-71
2022/05/01 02:05:52;;;;;;;7.70;4.50;;;9.90;99.90;;;;;;5035107;28;20192;-78
2022/05/01 02:08:18;;;;;;;8.07;3.70;;;9.90;99.90;;;;;;5038729;28;20201;-79
2022/05/01 02:10:45;;;;;;;8.20;4.77;;;10.00;99.90;;;;;;5035135;28;20207;-74
2022/05/01 02:13:11;;;;;;;5.73;4.07;;;10.00;99.90;;;;;;5034522;28;20207;-74
2022/05/01 02:15:37;;;;;;;4.43;4.07;;;10.00;99.90;;;;;;5036968;28;20208;-78
2022/05/01 02:18:04;;;;;;;5.37;3.60;;;9.90;99.90;;;;;;5035697;28;20690;-72
2022/05/01 02:23:16;;;;;;;4.17;3.77;;;9.80;99.90;;;;;;5032933;28;20252;-79
2022/05/01 02:25:42;;;;;;;4.07;3.67;;;9.70;99.90;;;;;;5035441;28;20227;-72
2022/05/01 02:28:07;;;;;;;7.40;3.73;;;9.70;99.90;;;;;;5035201;28;20192;-74
2022/05/01 02:30:33;;;;;;;5.03;4.30;;;9.60;99.90;;;;;;5035225;28;20194;-79
2022/05/01 02:32:58;;;;;;;6.90;3.60;;;9.50;99.90;;;;;;5036753;28;20224;-77
2022/05/01 02:35:24;;;;;;;5.20;3.87;;;9.40;99.90;;;;;;5036380;28;20220;-72
2022/05/01 02:37:49;;;;;;;4.73;3.57;;;9.40;99.90;;;;;;5033909;28;20945;-75
2022/05/01 02:40:15;;;;;;;6.63;4.20;;;9.40;99.90;;;;;;5045478;28;20225;-75
2022/05/01 02:42:42;;;;;;;4.17;3.77;;;9.40;99.90;;;;;;5053215;28;20603;-75
2022/05/01 02:45:08;;;;;;;5.63;3.47;;;9.30;99.90;;;;;;5055248;28;20534;-76
2022/05/01 02:47:34;;;;;;;5.33;3.90;;;9.30;99.90;;;;;;5058225;28;20222;-78
2022/05/01 02:49:59;;;;;;;4.67;3.93;;;9.20;99.90;;;;;;5047701;28;20699;-75
2022/05/01 02:52:25;;;;;;;6.77;4.20;;;9.20;99.90;;;;;;5054728;28;20240;-75
2022/05/01 02:54:50;;;;;;;4.20;3.63;;;9.20;99.90;;;;;;5044546;28;20234;-75
2022/05/01 02:57:16;;;;;;;4.10;3.10;;;9.20;99.90;;;;;;5055959;28;20206;-76
2022/05/01 02:59:41;;;;;;;4.50;3.97;;;9.10;99.90;;;;;;5036134;28;20222;-75
2022/05/01 03:02:07;;;;;;;5.33;3.93;;;9.10;99.90;;;;;;5054530;28;20204;-75
2022/05/01 03:04:33;;;;;;;5.73;4.00;;;9.00;99.90;;;;;;5035548;28;20191;-75
2022/05/01 03:06:59;;;;;;;3.90;3.43;;;9.00;99.90;;;;;;5049676;28;20208;-75
2022/05/01 03:09:24;;;;;;;5.13;4.00;;;8.90;99.90;;;;;;5039586;28;20187;-75
2022/05/01 03:11:50;;;;;;;6.80;4.70;;;8.90;99.90;;;;;;5056510;28;20199;-73
2022/05/01 03:14:16;;;;;;;6.67;4.03;;;8.80;99.90;;;;;;5037661;28;20302;-75
2022/05/01 03:16:42;;;;;;;6.77;4.33;;;8.80;99.90;;;;;;5060101;28;20593;-76
2022/05/01 03:24:36;;;;;;;8.03;4.10;;;8.80;99.90;;;;;;5042894;28;20272;-77
2022/05/01 03:27:02;;;;;;;4.53;4.00;;;8.80;99.90;;;;;;5056821;28;20214;-76
2022/05/01 03:29:28;;;;;;;6.07;4.17;;;8.80;99.90;;;;;;5041270;28;20179;-77
2022/05/01 03:31:54;;;;;;;4.57;4.07;;;8.70;99.90;;;;;;5046212;28;20696;-76
2022/05/01 03:34:20;;;;;;;6.43;4.27;;;8.70;99.90;;;;;;5039939;28;20216;-76
2022/05/01 03:36:47;;;;;;;4.77;4.37;;;8.60;99.90;;;;;;5063547;28;20798;-76
2022/05/01 03:39:13;;;;;;;6.13;4.00;;;8.60;99.90;;;;;;5038972;28;20181;-77
2022/05/01 03:41:38;;;;;;;4.87;4.00;;;8.60;99.90;;;;;;5052183;28;20186;-78
2022/05/01 03:44:07;;;;;;;7.07;4.50;;;8.60;99.90;;;;;;5036459;28;20249;-78
2022/05/01 03:46:33;;;;;;;4.17;3.73;;;8.60;99.90;;;;;;5053730;28;20228;-78
2022/05/01 03:49:03;;;;;;;6.93;4.67;;;8.50;99.90;;;;;;5032237;28;20280;-80
2022/05/01 03:51:31;;;;;;;6.03;4.27;;;8.50;99.90;;;;;;5059874;28;20353;-77
2022/05/01 03:53:58;;;;;;;7.17;4.70;;;8.50;99.90;;;;;;5037092;28;20219;-77
2022/05/01 03:56:24;;;;;;;5.70;3.80;;;8.60;99.90;;;;;;5053716;28;20669;-78
2022/05/01 03:58:49;;;;;;;8.33;4.17;;;8.60;99.90;;;;;;5035443;28;20305;-78
2022/05/01 04:01:15;;;;;;;8.33;4.97;;;8.60;99.90;;;;;;5049130;28;20677;-80
2022/05/01 04:03:40;;;;;;;4.43;4.03;;;8.60;99.90;;;;;;5031460;28;20934;-74
2022/05/01 04:06:06;;;;;;;4.93;4.43;;;8.60;99.90;;;;;;5060182;28;20205;-73
2022/05/01 04:08:31;;;;;;;5.40;4.07;;;8.50;99.90;;;;;;5034466;28;20233;-65
2022/05/01 04:10:56;;;;;;;12.70;5.80;;;8.50;99.90;;;;;;5047495;28;20678;-73
2022/05/01 04:13:22;;;;;;;4.57;3.70;;;8.50;99.90;;;;;;5047728;28;20207;-73
2022/05/01 04:15:48;;;;;;;7.87;4.53;;;8.50;99.90;;;;;;5065088;28;20240;-74
2022/05/01 04:18:13;;;;;;;5.13;4.27;;;8.50;99.90;;;;;;5039669;28;20898;-71
2022/05/01 04:20:38;;;;;;;5.23;4.03;;;8.60;99.90;;;;;;5055059;28;20274;-72
2022/05/01 04:23:08;;;;;;;5.10;3.97;;;8.60;99.90;;;;;;5038731;28;20211;-73
2022/05/01 04:25:34;;;;;;;6.97;4.50;;;8.70;99.90;;;;;;5041540;28;20566;-73
2022/05/01 04:28:02;;;;;;;5.00;4.60;;;8.60;99.90;;;;;;5051734;28;20211;-73
2022/05/01 04:30:29;;;;;;;5.83;5.23;;;8.60;99.90;;;;;;5060823;28;20199;-74
2022/05/01 04:32:57;;;;;;;5.53;4.43;;;8.70;99.90;;;;;;5044112;28;20307;-74
2022/05/01 04:35:47;;;;;;;4.80;4.30;;;8.70;99.90;;;;;;5049405;28;20669;-74
2022/05/01 04:38:14;;;;;;;5.60;4.90;;;8.70;99.90;;;;;;5024297;28;20266;-75
2022/05/01 04:40:46;;;;;;;5.57;4.20;;;8.70;99.90;;;;;;5058600;28;20224;-75
2022/05/01 04:43:19;;;;;;;5.53;4.20;;;8.70;99.90;;;;;;5035394;28;20220;-75
2022/05/01 04:45:47;;;;;;;8.13;4.40;;;8.70;99.90;;;;;;5033080;28;20195;-75
2022/05/01 04:48:14;;;;;;;4.23;3.60;;;8.70;99.90;;;;;;5032333;28;20210;-76
2022/05/01 04:50:40;;;;;;;5.50;4.97;;;8.80;99.90;;;;;;5047287;28;20222;-76
2022/05/01 04:53:09;;;;;;;5.83;4.80;;;8.80;99.90;;;;;;5032794;28;20255;-75
2022/05/01 04:55:36;;;;;;;4.90;4.37;;;9.00;99.90;;;;;;5037305;28;20631;-74
2022/05/01 04:58:02;;;;;;;6.00;4.43;;;9.00;99.90;;;;;;5041991;28;20588;-74
2022/05/01 05:00:27;;;;;;;4.80;3.83;;;9.00;99.90;;;;;;5063690;28;20192;-74
2022/05/01 05:02:56;;;;;;;4.87;4.00;;;9.00;99.90;;;;;;5050252;28;20201;-75
2022/05/01 05:05:22;;;;;;;3.93;3.53;;;9.00;99.90;;;;;;5056707;28;20212;-74
2022/05/01 05:07:48;;;;;;;4.33;3.93;;;9.00;99.90;;;;;;5051399;28;20281;-74
2022/05/01 05:10:14;;;;;;;5.13;4.63;;;9.00;99.90;;;;;;5049727;28;20224;-74
2022/05/01 05:12:42;;;;;;;5.40;3.97;;;9.20;99.90;;;;;;5036127;28;20216;-74
2022/05/01 05:15:10;;;;;;;5.40;4.90;;;9.20;99.90;;;;;;5048440;28;20208;-74
2022/05/01 05:17:36;;;;;;;8.17;4.47;;;9.30;99.90;;;;;;5047022;28;20219;-75
2022/05/01 05:20:04;;;;;;;7.83;4.80;;;9.40;99.90;;;;;;5031220;28;20189;-76
2022/05/01 05:22:29;;;;;;;4.03;3.63;;;9.40;99.90;;;;;;5039033;28;20221;-72
2022/05/01 05:24:55;;;;;;;6.00;4.40;;;9.40;99.90;;;;;;5038087;28;20627;-73
2022/05/01 05:27:23;;;;;;;10.00;4.57;;;9.50;99.90;;;;;;5044236;28;20219;-78
2022/05/01 05:29:48;;;;;;;4.93;4.17;;;9.60;99.90;;;;;;5046981;28;20212;-77
2022/05/01 05:32:14;;;;;;;4.10;3.70;;;9.70;99.90;;;;;;5041268;28;20690;-76
2022/05/01 05:34:40;;;;;;;6.70;4.27;;;9.90;99.90;;;;;;5034609;28;20211;-78
2022/05/01 05:37:05;;;;;;;4.47;3.80;;;10.10;99.90;;;;;;5054965;28;20194;-77
2022/05/01 05:39:31;;;;;;;5.00;3.90;;;10.20;99.90;;;;;;5036418;28;20787;-81
2022/05/01 05:41:56;;;;;;;6.10;3.83;;;10.30;99.90;;;;;;5048962;28;20276;-79
2022/05/01 05:44:22;;;;;;;6.90;4.00;;;10.40;99.90;;;;;;5030721;28;20185;-79
2022/05/01 05:46:47;;;;;;;3.67;3.37;;;10.60;99.90;;;;;;5042999;28;20731;-79
2022/05/01 05:49:13;;;;;;;5.33;4.40;;;10.80;99.90;;;;;;5032926;28;20280;-79
2022/05/01 05:51:38;;;;;;;5.50;3.70;;;11.00;99.90;;;;;;5049466;28;20313;-78
2022/05/01 05:54:04;;;;;;;4.03;3.23;;;11.10;99.90;;;;;;5029195;28;21078;-78
2022/05/01 05:56:29;;;;;;;5.50;3.83;;;11.30;99.90;;;;;;5049830;28;20233;-78
2022/05/01 05:58:56;;;;;;;4.70;3.90;;;11.40;99.90;;;;;;5036975;28;20288;-78
2022/05/01 06:01:21;;;;;;;4.67;3.50;;;11.60;99.90;;;;;;5059832;28;20206;-78
2022/05/01 06:03:47;;;;;;;8.30;4.60;;;11.80;99.90;;;;;;5037723;28;20203;-81
2022/05/01 06:06:14;;;;;;;9.70;4.30;;;11.90;99.90;;;;;;5052540;28;20226;-81
2022/05/01 06:08:39;;;;;;;4.53;4.10;;;12.00;99.90;;;;;;5030349;28;20233;-81
2022/05/01 06:11:05;;;;;;;8.60;4.23;;;12.10;99.90;;;;;;5049251;28;20725;-82
2022/05/01 06:13:31;;;;;;;5.10;3.73;;;12.10;99.90;;;;;;5031100;28;21007;-81
2022/05/01 06:15:57;;;;;;;6.13;4.47;;;12.30;99.90;;;;;;5050776;28;20209;-72
2022/05/01 06:18:22;;;;;;;4.87;4.30;;;12.30;99.90;;;;;;5035102;28;20298;-81
2022/05/01 06:20:49;;;;;;;6.60;4.67;;;12.30;99.90;;;;;;5056657;28;20233;-81
2022/05/01 06:23:15;;;;;;;9.13;4.73;;;12.20;99.90;;;;;;5040351;28;20360;-81
2022/05/01 06:25:44;;;;;;;10.00;5.30;;;12.20;99.90;;;;;;5050627;28;20748;-80
2022/05/01 06:28:10;;;;;;;6.30;4.20;;;12.20;99.90;;;;;;5039957;28;20215;-81
2022/05/01 06:30:39;;;;;;;9.03;4.70;;;12.30;99.90;;;;;;5052162;28;20245;-74
2022/05/01 06:33:08;;;;;;;5.80;4.37;;;12.30;99.90;;;;;;5039475;28;20918;-75
2022/05/01 06:35:33;;;;;;;4.40;3.77;;;12.40;99.90;;;;;;5043769;28;20210;-75
2022/05/01 06:37:59;;;;;;;4.27;3.87;;;12.50;99.90;;;;;;5043423;28;20196;-75
2022/05/01 06:40:24;;;;;;;4.77;4.37;;;12.50;99.90;;;;;;5052297;28;20179;-74
2022/05/01 06:42:50;;;;;;;4.93;4.30;;;12.70;99.90;;;;;;5051109;28;20817;-75
2022/05/01 06:45:16;;;;;;;5.13;4.43;;;12.60;99.90;;;;;;5041050;28;20202;-75
2022/05/01 06:47:41;;;;;;;7.47;5.07;;;12.60;99.90;;;;;;5046543;28;20195;-76
2022/05/01 06:50:07;;;;;;;7.67;5.03;;;12.60;99.90;;;;;;5064384;28;20576;-73
2022/05/01 06:52:32;;;;;;;5.47;4.87;;;12.60;99.90;;;;;;5042759;28;20209;-77
2022/05/01 06:54:59;;;;;;;7.67;4.23;;;12.60;99.90;;;;;;5028322;28;20221;-77
2022/05/01 06:57:25;;;;;;;4.80;4.40;;;12.80;99.90;;;;;;5049013;28;20197;-77
2022/05/01 06:59:51;;;;;;;11.83;4.87;;;12.90;99.70;;;;;;5032580;28;20193;-76
2022/05/01 07:02:17;;;;;;;6.60;4.90;;;13.00;99.40;;;;;;5041394;28;20203;-76
2022/05/01 07:04:42;;;;;;;7.63;4.80;;;13.10;99.10;;;;;;5031184;28;20234;-77
2022/05/01 07:07:08;;;;;;;5.50;4.40;;;13.20;98.80;;;;;;5051133;28;20208;-77
2022/05/01 07:09:33;;;;;;;7.53;5.00;;;13.40;98.60;;;;;;5035768;28;20203;-77
2022/05/01 07:11:59;;;;;;;6.50;4.17;;;13.50;98.30;;;;;;5066197;28;20230;-76
2022/05/01 07:14:24;;;;;;;6.20;3.70;;;13.60;98.40;;;;;;5048374;28;20700;-77
2022/05/01 07:16:50;;;;;;;6.60;4.17;;;13.70;97.70;;;;;;5067477;28;20182;-78
2022/05/01 07:19:16;;;;;;;4.47;4.07;;;13.60;97.10;;;;;;5045677;28;20174;-78
2022/05/01 07:21:41;;;;;;;8.23;4.53;;;13.60;97.00;;;;;;5056202;28;20195;-80
2022/05/01 07:24:07;;;;;;;5.70;3.87;;;13.60;97.20;;;;;;5032974;28;20568;-74
2022/05/01 07:26:33;;;;;;;8.60;3.83;;;13.60;97.20;;;;;;5046278;28;20214;-65
2022/05/01 07:29:03;;;;;;;5.47;4.23;;;13.60;96.80;;;;;;5036423;28;20254;-73
2022/05/01 07:31:30;;;;;;;6.73;3.93;;;13.70;97.00;;;;;;5039162;28;20187;-76
2022/05/01 07:33:55;;;;;;;5.00;4.23;;;13.80;97.20;;;;;;5037390;28;20214;-74
2022/05/01 07:36:21;;;;;;;10.63;3.87;;;13.90;96.70;;;;;;5058366;28;20237;-76
2022/05/01 07:38:48;;;;;;;6.83;3.73;;;14.00;96.40;;;;;;5037306;28;20206;-76
2022/05/01 07:41:16;;;;;;;7.03;2.77;;;14.10;96.50;;;;;;5028090;28;20578;-77
2022/05/01 07:43:42;;;;;;;5.83;3.20;;;14.10;94.70;;;;;;5026665;28;20308;-77
2022/05/01 07:46:08;;;;;;;3.77;3.03;;;14.30;95.20;;;;;;5064324;28;20618;-76
2022/05/01 07:48:34;;;;;;;3.53;3.23;;;14.60;94.00;;;;;;5040369;28;20266;-77
2022/05/01 07:50:59;;;;;;;4.13;3.47;;;14.70;93.90;;;;;;5043590;28;20252;-77
2022/05/01 07:53:25;;;;;;;6.07;3.97;;;14.80;93.80;;;;;;5038830;28;20216;-76
2022/05/01 07:55:50;;;;;;;6.17;3.50;;;14.90;93.80;;;;;;5032532;28;20341;-77
2022/05/01 07:58:16;;;;;;;5.03;3.13;;;15.00;93.30;;;;;;5051318;28;20194;-77
2022/05/01 08:00:41;;;;;;;4.37;2.73;;;15.00;91.80;;;;;;5032114;28;20612;-77
2022/05/01 08:05:51;;;;;;;5.80;3.00;;;15.20;86.90;;;;;;5033655;28;20221;-76
2022/05/01 08:08:17;;;;;;;7.17;3.67;;;15.20;90.00;;;;;;5054719;28;20646;-76
2022/05/01 08:10:42;;;;;;;4.50;3.27;;;15.20;90.00;;;;;;5034894;28;20246;-76
2022/05/01 08:13:08;;;;;;;5.50;2.30;;;15.30;89.70;;;;;;5045327;28;20638;-75
2022/05/01 08:15:34;;;;;;;2.97;2.67;;;15.50;88.90;;;;;;5033248;28;20211;-76
2022/05/01 08:21:05;;;;;;;3.83;2.67;;;15.50;87.60;;;;;;5046850;28;20293;-75
2022/05/01 08:23:29;;;;;;;4.10;3.03;;;15.60;86.70;;;;;;5042237;28;20218;-74
2022/05/01 08:25:55;;;;;;;3.97;2.50;;;15.50;87.40;;;;;;5036896;28;20670;-75
2022/05/01 08:28:20;;;;;;;4.30;2.87;;;15.30;87.80;;;;;;5064087;28;20190;-76
2022/05/01 08:30:47;;;;;;;4.87;3.07;;;15.20;87.90;;;;;;5036448;28;20301;-75
2022/05/01 08:33:12;;;;;;;3.57;2.80;;;15.20;88.20;;;;;;5049879;28;20214;-78
2022/05/01 08:35:38;;;;;;;4.83;2.57;;;15.20;86.10;;;;;;5039963;28;20209;-77
2022/05/01 08:38:03;;;;;;;6.50;2.50;;;15.20;85.30;;;;;;5055821;28;20206;-75
2022/05/01 08:40:29;;;;;;;2.73;2.53;;;15.10;85.70;;;;;;5035399;28;20207;-74
2022/05/01 08:42:54;;;;;;;5.43;2.50;;;15.20;86.50;;;;;;5052441;28;20191;-69
2022/05/01 08:45:25;;;;;;;4.50;1.90;;;15.10;84.90;;;;;;5031513;28;20206;-78
2022/05/01 08:47:59;;;;;;;2.50;2.17;;;15.20;85.30;;;;;;5026522;28;20225;-67
2022/05/01 08:50:25;;;;;;;2.90;1.73;;;15.20;83.90;;;;;;5032494;28;20658;-70
2022/05/01 08:52:52;;;;;;;4.13;1.90;;;15.20;83.30;;;;;;5058247;28;20305;-67
2022/05/01 08:55:18;;;;;;;4.13;2.30;;;15.10;81.40;;;;;;5050255;28;20202;-67
2022/05/01 08:57:44;;;;;;;2.63;2.23;;;15.10;81.10;;;;;;5063992;28;20565;-66
2022/05/01 09:00:10;;;;;;;2.37;2.03;;;15.10;80.50;;;;;;5037166;28;20203;-67
2022/05/01 09:02:37;;;;;;;3.03;2.17;;;15.10;80.50;;;;;;5054924;28;20229;-68
2022/05/01 09:05:03;;;;;;;2.03;1.80;;;15.20;78.40;;;;;;5049029;28;20214;-67
2022/05/01 09:07:29;;;;;;;4.33;2.40;;;15.10;77.80;;;;;;5059628;28;20629;-69
2022/05/01 09:09:55;;;;;;;2.37;1.80;;;15.10;78.30;;;;;;5043213;28;21005;-77
2022/05/01 09:15:05;;;;;;;3.00;1.67;;;15.20;78.50;;;;;;5044012;28;20221;-80
2022/05/01 09:17:30;;;;;;;2.47;2.27;;;15.30;77.70;;;;;;5051448;28;20194;-79
2022/05/01 09:20:08;;;;;;;2.60;1.97;;;15.30;76.60;;;;;;5041524;28;20203;-68
2022/05/01 09:22:51;;;;;;;3.43;1.60;;;15.30;76.30;;;;;;5055227;28;20201;-79
2022/05/01 09:25:18;;;;;;;2.43;1.63;;;15.20;75.90;;;;;;5038369;28;20196;-77
2022/05/01 09:27:43;;;;;;;2.47;1.90;;;15.30;77.60;;;;;;5042908;28;20286;-79
2022/05/01 09:30:16;;;;;;;4.57;2.17;;;15.20;76.50;;;;;;5043673;28;20295;-80
2022/05/01 09:32:42;;;;;;;2.80;1.63;;;15.20;76.40;;;;;;5033857;28;20186;-79
2022/05/01 09:35:15;;;;;;;4.47;1.50;;;15.30;75.30;;;;;;5052603;28;20708;-80
2022/05/01 09:37:44;;;;;;;5.17;1.83;;;15.30;73.60;;;;;;5044711;28;20229;-79
2022/05/01 09:40:10;;;;;;;2.40;1.23;;;15.30;74.40;;;;;;5036590;28;20245;-81
2022/05/01 09:42:36;;;;;;;1.40;1.30;;;15.30;73.10;;;;;;5046254;28;20187;-80
2022/05/01 09:45:12;;;;;;;1.83;1.67;;;15.20;73.10;;;;;;5043811;28;20234;-80
2022/05/01 09:47:45;;;;;;;4.10;1.33;;;15.10;73.10;;;;;;5025900;28;20202;-78
2022/05/01 09:50:12;;;;;;;2.90;1.43;;;15.10;72.80;;;;;;5041321;28;20203;-78
2022/05/01 09:52:57;;;;;;;1.87;1.50;;;15.00;73.20;;;;;;5030697;28;20202;-80
2022/05/01 09:55:23;;;;;;;2.30;1.63;;;15.00;74.40;;;;;;5040498;28;21035;-80
2022/05/01 09:57:49;;;;;;;1.63;1.50;;;14.90;74.80;;;;;;5052169;28;20186;-80
2022/05/01 10:00:35;;;;;;;2.47;1.63;;;14.80;76.70;;;;;;5039535;28;20210;-80
2022/05/01 10:03:18;;;;;;;3.43;1.30;;;15.00;76.50;;;;;;5037996;28;20202;-79
2022/05/01 10:05:44;;;;;;;2.70;1.20;;;15.10;75.30;;;;;;5029722;28;20203;-81
2022/05/01 10:08:12;;;;;;;1.63;1.53;;;15.10;75.30;;;;;;5053850;28;20199;-81
2022/05/01 10:10:40;;;;;;;2.83;1.40;;;15.20;75.40;;;;;;5041558;28;20226;-79
2022/05/01 10:13:06;;;;;;;1.57;1.40;;;15.30;76.40;;;;;;5052448;28;20227;-81
2022/05/01 10:15:33;;;;;;;1.60;1.50;;;15.40;74.50;;;;;;5045790;28;20276;-79
2022/05/01 10:18:01;;;;;;;2.63;1.67;;;15.50;74.20;;;;;;5054320;28;20195;-81
2022/05/01 10:20:28;;;;;;;1.67;1.40;;;15.50;75.20;;;;;;5036691;28;20232;-81
2022/05/01 10:22:54;;;;;;;3.33;1.70;;;15.50;73.90;;;;;;5056357;28;20197;-81
2022/05/01 10:25:20;;;;;;;2.57;2.03;;;15.60;73.70;;;;;;5039297;28;20256;-81
2022/05/01 10:28:18;;;;;;;3.53;1.70;;;15.80;73.60;;;;;;5052397;28;20927;-80
2022/05/01 10:34:43;;;;;;;4.33;1.30;;;15.80;72.70;;;;;;5023136;28;20515;-79
2022/05/01 10:37:33;;;;;;;2.73;1.97;;;16.00;73.00;;;;;;5041538;28;20190;-81
2022/05/01 10:40:00;;;;;;;1.83;1.63;;;15.90;74.60;;;;;;5036373;28;20249;-81
2022/05/01 10:42:32;;;;;;;1.73;1.60;;;15.90;73.30;;;;;;5055690;28;20286;-80
2022/05/01 10:44:58;;;;;;;2.37;1.63;;;16.00;73.30;;;;;;5034369;28;20202;-79
2022/05/01 10:47:35;;;;;;;3.20;1.70;;;16.00;72.20;;;;;;5050189;28;20200;-80
2022/05/01 10:50:09;;;;;;;2.60;1.47;;;16.10;72.20;;;;;;5023609;28;20199;-80
2022/05/01 10:53:01;;;;;;;1.70;1.60;;;16.20;72.90;;;;;;5058297;28;20267;-79
2022/05/01 10:55:26;;;;;;;3.67;1.80;;;16.20;72.30;;;;;;5027455;28;20210;-80
2022/05/01 10:58:27;;;;;;;3.07;1.70;;;16.30;74.30;;;;;;5051324;28;20657;-80
2022/05/01 11:00:55;;;;;;;4.63;1.80;;;16.30;73.00;;;;;;5039672;28;20573;-80
2022/05/01 11:03:29;;;;;;;2.63;2.07;;;16.30;72.00;;;;;;5057581;28;20244;-80
2022/05/01 11:06:08;;;;;;;1.73;1.63;;;16.20;73.40;;;;;;5038490;28;20210;-81
2022/05/01 11:08:36;;;;;;;3.80;1.67;;;16.20;72.40;;;;;;5041581;28;20186;-78
2022/05/01 11:11:05;;;;;;;1.83;1.70;;;16.20;72.70;;;;;;5033141;28;20275;-80
2022/05/01 11:13:33;;;;;;;1.70;1.60;;;16.40;73.10;;;;;;5044424;28;20221;-80
2022/05/01 11:15:59;;;;;;;3.73;1.70;;;16.30;73.30;;;;;;5034173;28;20199;-81
2022/05/01 11:18:30;;;;;;;2.30;1.70;;;16.40;73.60;;;;;;5040771;28;20207;-82
2022/05/01 11:21:21;;;;;;;1.67;1.57;;;16.40;72.70;;;;;;5037557;28;20348;-81
2022/05/01 11:23:57;;;;;;;1.63;1.53;;;16.40;72.50;;;;;;5037187;28;20196;-80
2022/05/01 11:26:23;;;;;;;2.27;1.90;;;16.30;72.50;;;;;;5037605;28;20215;-80
2022/05/01 11:28:52;;;;;;;6.60;2.80;;;16.30;73.30;;;;;;5059342;28;20206;-80
2022/05/01 11:31:36;;;;;;;2.73;2.17;;;16.40;73.40;;;;;;5048006;28;20205;-80
2022/05/01 11:34:17;;;;;;;3.87;2.57;;;16.40;74.20;;;;;;5048966;28;20206;-81
2022/05/01 11:37:02;;;;;;;8.27;2.40;;;16.40;74.40;;;;;;5040629;28;20237;-81
2022/05/01 11:39:46;;;;;;;3.50;2.90;;;16.60;72.60;;;;;;5038571;28;20736;-81
2022/05/01 11:42:24;;;;;;;8.13;3.10;;;16.80;73.20;;;;;;5065359;28;20298;-81
2022/05/01 11:44:51;;;;;;;3.30;2.40;;;16.70;72.20;;;;;;5047499;28;20594;-79
2022/05/01 11:47:20;;;;;;;4.80;2.83;;;16.80;70.50;;;;;;5067112;28;20200;-79
2022/05/01 11:49:46;;;;;;;2.03;1.93;;;16.80;70.20;;;;;;5048811;28;20221;-79
2022/05/01 11:52:16;;;;;;;2.30;2.10;;;16.90;70.10;;;;;;5054254;28;20238;-79
2022/05/01 11:54:50;;;;;;;3.20;2.33;;;16.90;69.60;;;;;;5048956;28;20350;-79
2022/05/01 12:03:00;;;;;;;4.07;3.37;;;17.00;70.00;;;;;;5039257;28;20239;-79
2022/05/01 12:05:30;;;;;;;3.57;2.37;;;17.20;70.00;;;;;;5029245;28;20204;-80
2022/05/01 12:07:56;;;;;;;3.50;2.33;;;17.10;70.40;;;;;;5062756;28;21039;-80
2022/05/01 12:10:23;;;;;;;2.27;2.10;;;17.20;71.30;;;;;;5042287;28;20806;-81
2022/05/01 12:12:48;;;;;;;5.73;2.20;;;16.90;70.40;;;;;;5055062;28;20202;-81
2022/05/01 12:15:14;;;;;;;2.90;1.60;;;16.80;71.40;;;;;;5051717;28;20212;-80
2022/05/01 12:17:41;;;;;;;6.40;2.10;;;16.80;72.30;;;;;;5050986;28;20196;-80
2022/05/01 12:20:07;;;;;;;5.43;1.80;;;16.90;72.80;;;;;;5041138;28;20310;-81
2022/05/01 12:22:37;;;;;;;2.80;2.13;;;16.70;71.70;;;;;;5048084;28;20192;-80
2022/05/01 12:25:05;;;;;;;2.70;2.03;;;16.60;72.90;;;;;;5030855;28;20212;-81
2022/05/01 12:27:33;;;;;;;2.13;2.00;;;16.50;73.70;;;;;;5039400;28;20602;-80
2022/05/01 12:30:05;;;;;;;6.37;2.20;;;16.40;73.30;;;;;;5040543;28;20225;-81
2022/05/01 12:32:32;;;;;;;2.80;2.07;;;16.40;72.90;;;;;;5040071;28;20202;-81
2022/05/01 12:35:03;;;;;;;6.10;2.03;;;16.20;73.40;;;;;;5039391;28;20632;-82
2022/05/01 12:37:34;;;;;;;2.97;1.83;;;16.10;74.00;;;;;;5037518;28;20194;-82
2022/05/01 12:40:03;;;;;;;4.93;1.97;;;16.10;75.10;;;;;;5037536;28;20211;-81
2022/05/01 12:45:17;;;;;;;2.77;2.20;;;16.40;73.80;;;;;;5046837;28;20186;-82
2022/05/01 12:47:51;;;;;;;3.00;2.23;;;16.40;73.90;;;;;;5057268;28;20297;-81
2022/05/01 12:50:19;;;;;;;2.97;2.17;;;16.30;74.30;;;;;;5043656;28;20517;-81
2022/05/01 12:52:46;;;;;;;2.67;2.47;;;15.90;74.60;;;;;;5058231;28;20320;-82
2022/05/01 12:55:16;;;;;;;2.70;1.70;;;15.90;76.20;;;;;;5027678;28;20211;-82
2022/05/01 12:58:08;;;;;;;2.43;1.93;;;16.00;75.00;;;;;;5062584;28;20603;-83
2022/05/01 13:00:42;;;;;;;3.83;2.00;;;16.10;75.60;;;;;;5036127;28;20203;-80
2022/05/01 13:03:30;;;;;;;2.00;1.90;;;16.00;75.70;;;;;;5065483;28;20277;-82
2022/05/01 13:06:08;;;;;;;3.07;1.70;;;16.00;74.90;;;;;;5038391;28;20638;-81
2022/05/01 13:08:40;;;;;;;2.40;1.60;;;16.00;73.20;;;;;;5036826;28;20195;-80
2022/05/01 13:11:17;;;;;;;3.37;2.17;;;15.90;73.90;;;;;;5045276;28;20242;-80
2022/05/01 13:14:04;;;;;;;3.37;1.70;;;15.90;73.30;;;;;;5038622;28;20214;-79
2022/05/01 13:16:32;;;;;;;4.23;1.80;;;16.10;73.70;;;;;;5055380;28;20320;-79
2022/05/01 13:19:08;;;;;;;2.80;1.70;;;16.20;72.80;;;;;;5038043;28;20183;-67
2022/05/01 13:21:37;;;;;;;6.47;2.40;;;16.40;72.40;;;;;;5040357;28;20237;-67
2022/05/01 13:24:06;;;;;;;4.13;2.00;;;16.40;72.10;;;;;;5026054;28;20210;-67
2022/05/01 13:26:31;;;;;;;1.87;1.77;;;16.60;70.80;;;;;;5057474;28;20700;-67
2022/05/01 13:28:57;;;;;;;2.17;1.97;;;17.10;69.50;;;;;;5036441;28;20207;-67
2022/05/01 13:31:23;;;;;;;1.87;1.77;;;17.20;67.70;;;;;;5050866;28;20290;-67